Terminal Aerodrome Forecast
Issued by NWS Twin Cities, MN

Home | Current Version | Previous Version | Text Only | Print | Product List | Glossary On
Versions: 1 2 3 4 5 6 7 8 9 10 11 12 13 14 15
182
FTUS43 KMPX 290520
TAFSTC
TAF
KSTC 290520Z 2906/3006 28010KT P6SM BKN100
     FM290900 28011KT P6SM SCT020 OVC035
     FM291300 30015G22KT P6SM OVC015
     FM291800 30017G25KT P6SM VCSH OVC025 PROB30 2919/2923 5SM -SHRA
      BR OVC010
     FM300100 29008KT P6SM BKN025 OVC050=

USA.gov is the U.S. government's official web portal to all federal, state and local government web resources and services.